createdAt,value
2023-01-29T00:02:53.330Z,14.70
2023-01-29T00:08:00.475Z,14.00
2023-01-29T00:13:07.696Z,13.60
2023-01-29T00:18:15.068Z,14.60
2023-01-29T00:23:23.076Z,13.70
2023-01-29T00:28:30.296Z,14.20
2023-01-29T00:33:37.851Z,13.30
2023-01-29T00:38:45.107Z,13.90
2023-01-29T00:44:10.228Z,13.10
2023-01-29T00:49:17.416Z,12.10
2023-01-29T00:54:24.643Z,12.00
2023-01-29T00:59:32.086Z,13.20
2023-01-29T01:04:39.211Z,12.80
2023-01-29T01:10:04.087Z,11.50
2023-01-29T01:15:13.285Z,10.90
2023-01-29T01:20:21.305Z,13.30
2023-01-29T01:25:29.873Z,12.70
2023-01-29T01:30:37.062Z,12.60
2023-01-29T01:35:44.147Z,12.00
2023-01-29T01:40:51.290Z,12.30
2023-01-29T01:45:58.509Z,11.30
2023-01-29T01:51:07.865Z,10.00
2023-01-29T01:56:19.198Z,9.90
2023-01-29T02:01:29.160Z,9.70
2023-01-29T02:06:58.276Z,8.90
2023-01-29T02:12:07.467Z,7.80
2023-01-29T02:17:17.427Z,7.30
2023-01-29T02:22:48.346Z,7.60
2023-01-29T02:28:22.057Z,7.20
2023-01-29T02:33:41.449Z,5.90
2023-01-29T02:38:56.590Z,6.00
2023-01-29T02:44:13.143Z,6.00
2023-01-29T02:49:27.394Z,5.80
2023-01-29T02:54:41.654Z,5.50
2023-01-29T02:59:56.156Z,5.10
2023-01-29T03:05:10.454Z,6.00
2023-01-29T03:10:22.934Z,5.20
2023-01-29T03:15:38.962Z,5.70
2023-01-29T03:21:04.593Z,5.20
2023-01-29T03:26:30.525Z,5.10
2023-01-29T03:31:57.367Z,5.40
2023-01-29T03:37:09.406Z,5.40
2023-01-29T03:42:25.872Z,5.90
2023-01-29T03:47:45.075Z,5.90
2023-01-29T03:52:58.067Z,5.60
2023-01-29T03:58:15.540Z,6.30
2023-01-29T04:03:25.813Z,5.80
2023-01-29T04:08:39.406Z,5.90
2023-01-29T04:13:47.347Z,5.20
2023-01-29T04:18:58.010Z,5.40
2023-01-29T04:24:16.319Z,5.00
2023-01-29T04:29:42.013Z,5.20
2023-01-29T04:35:09.004Z,5.70
2023-01-29T04:40:27.974Z,6.20
2023-01-29T04:45:50.124Z,6.30
2023-01-29T04:51:05.033Z,6.30
2023-01-29T04:56:18.629Z,6.20
2023-01-29T05:01:30.184Z,6.30
2023-01-29T05:06:39.294Z,5.70
2023-01-29T05:11:49.063Z,6.10
2023-01-29T05:16:59.791Z,6.30
2023-01-29T05:22:11.120Z,6.80
2023-01-29T05:27:40.366Z,7.30
2023-01-29T05:32:47.586Z,6.90
2023-01-29T05:37:54.681Z,7.80
2023-01-29T05:43:02.014Z,7.00
2023-01-29T05:48:09.477Z,7.20
2023-01-29T05:53:16.684Z,7.00
2023-01-29T05:58:24.784Z,7.30
2023-01-29T06:03:31.938Z,8.00
2023-01-29T06:08:39.129Z,10.00
2023-01-29T06:13:48.008Z,8.80
2023-01-29T06:18:55.149Z,11.60
2023-01-29T06:24:02.435Z,13.70
2023-01-29T06:29:09.708Z,11.20
2023-01-29T06:34:16.968Z,11.30
2023-01-29T06:39:25.310Z,9.70
2023-01-29T06:44:32.598Z,10.70
2023-01-29T06:49:39.852Z,11.00
2023-01-29T06:54:47.523Z,11.80
2023-01-29T06:59:54.726Z,10.90
2023-01-29T07:05:06.082Z,11.70
2023-01-29T07:10:14.322Z,11.00
2023-01-29T07:15:21.912Z,9.00
2023-01-29T07:20:31.783Z,9.10
2023-01-29T07:25:39.223Z,10.00
2023-01-29T07:30:46.447Z,9.50
2023-01-29T07:35:56.505Z,9.80
2023-01-29T07:41:03.942Z,11.30
2023-01-29T07:46:14.890Z,12.10
2023-01-29T07:51:22.116Z,11.50
2023-01-29T07:56:29.346Z,11.20
2023-01-29T08:01:36.640Z,12.70
2023-01-29T08:06:45.531Z,12.00
2023-01-29T08:11:55.106Z,12.90
2023-01-29T08:17:02.975Z,13.50
2023-01-29T08:22:12.621Z,12.70
2023-01-29T08:27:20.129Z,12.10
2023-01-29T08:32:27.742Z,12.30
2023-01-29T08:37:35.254Z,11.90
2023-01-29T08:42:42.722Z,11.50
2023-01-29T08:47:51.261Z,12.50
2023-01-29T08:53:02.570Z,12.20
2023-01-29T08:58:11.087Z,12.20
2023-01-29T09:03:18.483Z,12.50
2023-01-29T09:13:33.235Z,12.50
2023-01-29T09:18:40.768Z,12.50
2023-01-29T09:23:48.046Z,13.80
2023-01-29T09:28:55.305Z,13.90
2023-01-29T09:34:02.479Z,22.00
2023-01-29T09:39:09.723Z,15.80
2023-01-29T09:44:26.141Z,17.60
2023-01-29T09:49:37.970Z,17.80
2023-01-29T09:54:56.300Z,16.70
2023-01-29T10:05:24.826Z,17.10
2023-01-29T10:10:49.700Z,18.40
2023-01-29T10:16:14.679Z,17.10
2023-01-29T10:21:43.731Z,18.70
2023-01-29T10:26:53.916Z,18.60
2023-01-29T10:32:06.149Z,17.60
2023-01-29T10:37:21.686Z,19.20
2023-01-29T10:42:39.683Z,21.00
2023-01-29T10:48:07.145Z,19.00
2023-01-29T10:53:31.614Z,20.50
2023-01-29T10:58:46.824Z,21.20
2023-01-29T11:04:02.303Z,21.00
2023-01-29T11:09:20.340Z,20.20
2023-01-29T11:14:29.903Z,20.40
2023-01-29T11:19:45.918Z,20.40
2023-01-29T11:25:11.285Z,21.40
2023-01-29T11:30:24.764Z,21.70
2023-01-29T11:35:33.559Z,22.90
2023-01-29T11:40:43.111Z,21.70
2023-01-29T11:45:52.207Z,21.10
2023-01-29T11:51:02.054Z,21.60
2023-01-29T11:56:21.897Z,21.20
2023-01-29T12:01:36.287Z,22.20
2023-01-29T12:06:50.711Z,22.80
2023-01-29T12:12:18.300Z,24.00
2023-01-29T12:17:28.399Z,24.00
2023-01-29T12:22:42.050Z,23.90
2023-01-29T12:27:54.688Z,24.00
2023-01-29T12:33:13.578Z,24.80
2023-01-29T12:38:22.313Z,22.40
2023-01-29T12:43:34.839Z,25.30
2023-01-29T12:48:45.371Z,22.80
2023-01-29T12:53:57.617Z,21.80
2023-01-29T12:59:15.316Z,22.00
2023-01-29T13:04:32.181Z,21.50
2023-01-29T13:09:44.473Z,19.30
2023-01-29T13:14:57.540Z,18.70
2023-01-29T13:20:11.871Z,19.20
2023-01-29T13:25:21.427Z,18.80
2023-01-29T13:30:33.414Z,18.90
2023-01-29T13:35:44.335Z,17.40
2023-01-29T13:40:55.181Z,20.20
2023-01-29T13:46:11.364Z,19.80
2023-01-29T13:51:23.300Z,17.20
2023-01-29T13:56:49.225Z,18.30
2023-01-29T14:02:21.513Z,18.40
2023-01-29T14:07:56.019Z,17.40
2023-01-29T14:13:46.556Z,15.90
2023-01-29T14:19:06.712Z,16.80
2023-01-29T14:24:21.068Z,18.50
2023-01-29T14:29:34.946Z,18.00
2023-01-29T14:34:51.732Z,18.20
2023-01-29T14:40:21.391Z,17.50
2023-01-29T14:45:32.206Z,16.50
2023-01-29T14:50:47.788Z,18.20
2023-01-29T14:56:04.242Z,18.60
2023-01-29T15:01:21.513Z,20.70
2023-01-29T15:06:39.041Z,22.00
2023-01-29T15:11:55.235Z,22.50
2023-01-29T15:17:23.498Z,22.20
2023-01-29T15:22:33.000Z,20.00
2023-01-29T15:27:45.206Z,19.90
2023-01-29T15:32:58.800Z,22.10
2023-01-29T15:38:15.769Z,21.80
2023-01-29T15:43:26.194Z,22.60
2023-01-29T15:48:37.446Z,22.90
2023-01-29T15:53:49.781Z,21.90
2023-01-29T15:59:00.423Z,27.00
2023-01-29T16:04:11.949Z,21.40
2023-01-29T16:09:24.987Z,21.30
2023-01-29T16:14:33.054Z,23.70
2023-01-29T16:24:48.072Z,21.60
2023-01-29T16:29:56.092Z,21.40
2023-01-29T16:35:05.169Z,23.00
2023-01-29T16:40:26.823Z,22.10
2023-01-29T16:45:34.323Z,23.90
2023-01-29T16:50:54.336Z,23.70
2023-01-29T16:56:12.479Z,24.30
2023-01-29T17:01:20.409Z,23.60
2023-01-29T17:06:29.221Z,24.40
2023-01-29T17:11:39.816Z,25.00
2023-01-29T17:16:55.047Z,27.20
2023-01-29T17:22:05.873Z,27.70
2023-01-29T17:27:19.708Z,24.90
2023-01-29T17:32:44.417Z,24.60
2023-01-29T17:37:52.592Z,25.30
2023-01-29T17:43:00.524Z,25.60
2023-01-29T17:48:12.953Z,26.70
2023-01-29T17:53:21.352Z,24.40
2023-01-29T17:58:32.073Z,24.60
2023-01-29T18:03:39.493Z,23.30
2023-01-29T18:08:46.878Z,24.70
2023-01-29T18:13:54.253Z,24.50
2023-01-29T18:19:01.942Z,25.90
2023-01-29T18:24:09.908Z,25.90
2023-01-29T18:29:17.194Z,25.00
2023-01-29T18:34:24.693Z,23.50
2023-01-29T18:39:31.971Z,23.00
2023-01-29T18:44:39.279Z,24.40
2023-01-29T18:49:52.837Z,25.50
2023-01-29T18:55:01.318Z,25.50
2023-01-29T19:00:24.101Z,24.70
2023-01-29T19:05:41.831Z,25.60
2023-01-29T19:10:49.270Z,25.30
2023-01-29T19:15:59.391Z,25.00
2023-01-29T19:21:12.340Z,29.10
2023-01-29T19:26:22.174Z,26.20
2023-01-29T19:31:32.065Z,28.00
2023-01-29T19:36:43.217Z,26.90
2023-01-29T19:41:50.478Z,26.40
2023-01-29T19:46:57.867Z,27.30
2023-01-29T19:52:15.211Z,33.10
2023-01-29T19:57:22.723Z,28.20
2023-01-29T20:02:33.848Z,26.70
2023-01-29T20:07:42.771Z,26.20
2023-01-29T20:13:04.340Z,26.50
2023-01-29T20:18:13.989Z,26.00
2023-01-29T20:23:36.724Z,25.20
2023-01-29T20:28:46.293Z,25.00
2023-01-29T20:33:53.645Z,22.70
2023-01-29T20:39:01.016Z,20.20
2023-01-29T20:44:12.736Z,19.80
2023-01-29T20:49:21.988Z,20.70
2023-01-29T20:54:30.365Z,29.30
2023-01-29T20:59:38.119Z,19.70
2023-01-29T21:04:49.107Z,18.80
2023-01-29T21:09:56.264Z,19.00
2023-01-29T21:15:06.956Z,19.50
2023-01-29T21:20:15.688Z,20.30
2023-01-29T21:25:25.604Z,21.20
2023-01-29T21:30:33.055Z,20.30
2023-01-29T21:35:40.752Z,21.00
2023-01-29T21:40:48.101Z,18.20
2023-01-29T21:46:00.447Z,21.70
2023-01-29T21:51:08.856Z,20.60
2023-01-29T21:56:21.730Z,23.30
2023-01-29T22:01:38.066Z,22.50
2023-01-29T22:06:45.809Z,20.90
2023-01-29T22:11:53.278Z,19.20
2023-01-29T22:17:03.052Z,21.60
2023-01-29T22:22:13.738Z,18.60
2023-01-29T22:27:21.215Z,21.60
2023-01-29T22:32:28.579Z,20.90
2023-01-29T22:37:35.903Z,20.70
2023-01-29T22:42:43.296Z,19.40
2023-01-29T22:47:53.028Z,20.00
2023-01-29T22:53:04.703Z,18.70
2023-01-29T22:58:12.187Z,20.70
2023-01-29T23:08:29.350Z,18.40
2023-01-29T23:13:36.798Z,19.20
2023-01-29T23:18:44.767Z,17.70
2023-01-29T23:23:54.424Z,20.10
2023-01-29T23:29:03.979Z,18.20
2023-01-29T23:34:11.415Z,21.60
2023-01-29T23:39:18.944Z,21.60
2023-01-29T23:44:26.151Z,20.10
2023-01-29T23:49:33.347Z,19.70
2023-01-29T23:54:40.560Z,17.80
2023-01-29T23:59:47.765Z,18.80
